Time;durP1;ratioP1;P1;durP2;ratioP2;P2;SDS_P1;SDS_P2;PMS_P1;PMS_P2;Temp;Humidity;BMP_temperature;BMP_pressure;BME280_temperature;BME280_humidity;BME280_pressure;Samples;Min_cycle;Max_cycle;Signal;HPM_P1;HPM_P2
2023/10/30 00:00:10;;;;;;;1.43;0.83;;;17.30;92.90;;;;;;5051546;28;20808;-67
2023/10/30 00:02:37;;;;;;;0.70;0.70;;;17.30;92.80;;;;;;5067367;28;20472;-68
2023/10/30 00:05:06;;;;;;;2.23;0.90;;;17.30;92.70;;;;;;5055832;28;20448;-68
2023/10/30 00:07:33;;;;;;;0.83;0.60;;;17.20;92.80;;;;;;5070672;28;20997;-67
2023/10/30 00:10:01;;;;;;;1.10;0.73;;;17.20;92.70;;;;;;5070598;28;20485;-66
2023/10/30 00:12:28;;;;;;;1.77;0.70;;;17.20;92.70;;;;;;5068878;28;20487;-67
2023/10/30 00:14:56;;;;;;;1.37;0.90;;;17.20;92.70;;;;;;5065888;28;20447;-67
2023/10/30 00:17:22;;;;;;;2.63;1.00;;;17.20;92.70;;;;;;5052327;28;20548;-68
2023/10/30 00:19:50;;;;;;;1.93;0.70;;;17.20;92.60;;;;;;5074883;28;20455;-68
2023/10/30 00:22:16;;;;;;;2.03;1.00;;;17.20;92.50;;;;;;5065607;28;20521;-68
2023/10/30 00:24:43;;;;;;;3.73;0.97;;;17.10;92.60;;;;;;5071243;28;20451;-68
2023/10/30 00:27:12;;;;;;;1.70;0.70;;;17.10;92.60;;;;;;5019792;28;20486;-67
2023/10/30 00:29:40;;;;;;;3.00;0.80;;;17.20;92.60;;;;;;5071676;28;20565;-67
2023/10/30 00:32:08;;;;;;;2.43;1.00;;;17.10;92.40;;;;;;5071499;28;20537;-67
2023/10/30 00:34:35;;;;;;;2.30;1.00;;;17.10;92.40;;;;;;5071420;28;20447;-68
2023/10/30 00:37:01;;;;;;;2.40;1.13;;;17.10;92.50;;;;;;5071732;28;20451;-67
2023/10/30 00:39:31;;;;;;;4.80;1.33;;;17.20;92.50;;;;;;5071370;28;20831;-67
2023/10/30 00:41:59;;;;;;;2.20;0.90;;;17.10;92.50;;;;;;5071374;28;20447;-67
2023/10/30 00:44:27;;;;;;;2.63;1.23;;;17.00;92.30;;;;;;5062761;28;20487;-67
2023/10/30 00:46:54;;;;;;;2.60;1.17;;;16.90;92.20;;;;;;5053195;28;20459;-67
2023/10/30 00:49:21;;;;;;;3.30;1.20;;;16.80;92.40;;;;;;5051328;28;20490;-68
2023/10/30 00:51:48;;;;;;;3.30;0.97;;;16.70;92.40;;;;;;5053298;28;20460;-65
2023/10/30 00:54:14;;;;;;;3.47;1.30;;;16.60;92.50;;;;;;5063267;28;20451;-68
2023/10/30 00:56:41;;;;;;;2.30;1.10;;;16.60;92.60;;;;;;5069019;28;20995;-68
2023/10/30 00:59:08;;;;;;;2.50;1.10;;;16.50;92.70;;;;;;5063620;28;20440;-68
2023/10/30 01:01:36;;;;;;;1.87;1.20;;;16.60;92.80;;;;;;5050907;28;20456;-68
2023/10/30 01:04:03;;;;;;;3.53;1.23;;;16.70;92.70;;;;;;5064860;28;20482;-67
2023/10/30 01:06:30;;;;;;;5.70;1.20;;;16.70;92.60;;;;;;5050676;28;20459;-67
2023/10/30 01:08:57;;;;;;;2.40;1.00;;;16.80;92.50;;;;;;5063867;28;20959;-68
2023/10/30 01:11:24;;;;;;;2.57;1.30;;;16.80;92.30;;;;;;5069257;28;20489;-67
2023/10/30 01:13:53;;;;;;;2.20;1.20;;;16.90;92.30;;;;;;5049932;28;20452;-67
2023/10/30 01:16:20;;;;;;;3.13;1.20;;;16.90;92.20;;;;;;5069681;28;20490;-67
2023/10/30 01:18:48;;;;;;;1.80;1.07;;;16.90;92.30;;;;;;5062680;28;20816;-68
2023/10/30 01:21:17;;;;;;;0.57;0.57;;;16.90;92.20;;;;;;5085256;28;20467;-68
2023/10/30 01:23:44;;;;;;;0.80;0.80;;;16.90;92.20;;;;;;5082155;28;20450;-67
2023/10/30 01:26:10;;;;;;;2.63;1.30;;;16.80;92.30;;;;;;5093004;28;20984;-66
2023/10/30 01:28:38;;;;;;;3.20;1.13;;;16.80;92.30;;;;;;5094913;28;20505;-67
2023/10/30 01:31:05;;;;;;;2.07;1.00;;;16.90;92.20;;;;;;5094768;28;20442;-67
2023/10/30 01:33:32;;;;;;;2.47;0.97;;;16.90;92.20;;;;;;5042756;28;20462;-68
2023/10/30 01:36:01;;;;;;;2.10;1.20;;;16.90;92.20;;;;;;5082492;28;20528;-67
2023/10/30 01:38:28;;;;;;;3.07;1.43;;;16.90;92.10;;;;;;5074330;28;20963;-68
2023/10/30 01:40:55;;;;;;;2.80;0.73;;;16.90;92.00;;;;;;5076278;28;20443;-67
2023/10/30 01:43:32;;;;;;;2.50;1.00;;;17.00;92.00;;;;;;5076763;28;20858;-66
2023/10/30 01:46:00;;;;;;;2.20;0.93;;;17.00;92.00;;;;;;5074300;28;20534;-67
2023/10/30 01:48:30;;;;;;;2.33;0.90;;;17.00;92.30;;;;;;5074102;28;20565;-67
2023/10/30 01:50:57;;;;;;;2.47;1.00;;;17.10;92.00;;;;;;5074569;28;20612;-67
2023/10/30 01:53:27;;;;;;;1.17;0.83;;;17.10;91.90;;;;;;5074059;28;20443;-68
2023/10/30 01:55:55;;;;;;;1.90;0.83;;;17.10;92.00;;;;;;5071606;28;20451;-68
2023/10/30 01:58:23;;;;;;;2.63;1.10;;;17.20;92.00;;;;;;5053659;28;20448;-68
2023/10/30 02:00:51;;;;;;;1.67;0.83;;;17.10;91.80;;;;;;5059324;28;20458;-68
2023/10/30 02:03:18;;;;;;;2.90;1.00;;;17.10;91.80;;;;;;5072405;28;20451;-68
2023/10/30 02:05:45;;;;;;;3.90;1.23;;;17.00;92.00;;;;;;5035485;28;20453;-68
2023/10/30 02:08:12;;;;;;;2.80;1.00;;;17.00;92.00;;;;;;5059159;28;21095;-67
2023/10/30 02:10:45;;;;;;;4.17;1.10;;;17.00;92.10;;;;;;5063634;28;20470;-67
2023/10/30 02:13:12;;;;;;;2.43;0.73;;;17.00;92.20;;;;;;5059931;28;20491;-67
2023/10/30 02:15:40;;;;;;;1.23;0.90;;;16.90;92.20;;;;;;5070122;28;20447;-67
2023/10/30 02:18:07;;;;;;;2.10;1.10;;;16.90;92.30;;;;;;5073256;28;20463;-68
2023/10/30 02:20:34;;;;;;;3.83;1.73;;;16.90;92.50;;;;;;5062004;28;20476;-67
2023/10/30 02:23:00;;;;;;;1.27;1.03;;;16.90;92.50;;;;;;5073569;28;20497;-67
2023/10/30 02:25:31;;;;;;;2.33;0.90;;;16.80;92.70;;;;;;5079046;28;20449;-68
2023/10/30 02:27:58;;;;;;;1.97;0.97;;;16.90;92.80;;;;;;5092931;28;20930;-68
2023/10/30 02:30:26;;;;;;;2.50;1.20;;;16.90;92.70;;;;;;5093977;28;20446;-67
2023/10/30 02:32:53;;;;;;;6.90;1.50;;;16.90;92.70;;;;;;5093907;28;20493;-67
2023/10/30 02:35:20;;;;;;;2.97;0.67;;;16.90;92.70;;;;;;5093981;28;20438;-67
2023/10/30 02:37:47;;;;;;;1.77;1.07;;;16.90;92.70;;;;;;5085495;28;20485;-67
2023/10/30 02:40:14;;;;;;;2.00;0.73;;;16.90;92.70;;;;;;5073242;28;20439;-68
2023/10/30 02:42:43;;;;;;;2.67;1.00;;;16.80;92.70;;;;;;5072891;28;20449;-67
2023/10/30 02:45:10;;;;;;;2.43;0.73;;;16.80;92.60;;;;;;5060729;28;20488;-68
2023/10/30 02:47:37;;;;;;;1.07;0.90;;;16.80;92.60;;;;;;5053002;28;20444;-68
2023/10/30 02:50:05;;;;;;;2.47;1.00;;;16.70;92.60;;;;;;5052816;28;21074;-67
2023/10/30 02:52:32;;;;;;;2.03;0.97;;;16.80;92.80;;;;;;5053300;28;20448;-67
2023/10/30 02:54:59;;;;;;;1.80;0.83;;;16.80;92.50;;;;;;5052734;28;20454;-68
2023/10/30 02:57:26;;;;;;;1.53;0.83;;;16.80;92.50;;;;;;5037852;28;20470;-67
2023/10/30 02:59:54;;;;;;;1.33;0.87;;;16.80;92.50;;;;;;5052838;28;20452;-67
2023/10/30 03:02:21;;;;;;;1.47;0.97;;;16.80;92.50;;;;;;5058522;28;20478;-67
2023/10/30 03:04:48;;;;;;;1.37;0.70;;;16.90;92.40;;;;;;5071888;28;20993;-67
2023/10/30 03:07:16;;;;;;;3.67;0.90;;;16.90;92.20;;;;;;5070056;28;20480;-67
2023/10/30 03:09:43;;;;;;;1.83;0.60;;;16.90;92.20;;;;;;5065634;28;20471;-68
2023/10/30 03:12:11;;;;;;;1.70;0.77;;;16.90;92.10;;;;;;5070508;28;20489;-67
2023/10/30 03:14:38;;;;;;;2.53;0.97;;;16.80;92.10;;;;;;5056275;28;20495;-68
2023/10/30 03:17:06;;;;;;;1.10;1.00;;;16.70;92.10;;;;;;5072188;28;20840;-68
2023/10/30 03:19:33;;;;;;;2.50;0.70;;;16.70;92.20;;;;;;5055411;28;20483;-67
2023/10/30 03:22:00;;;;;;;1.80;0.80;;;16.70;92.20;;;;;;5069317;28;20447;-67
2023/10/30 03:24:26;;;;;;;1.70;1.13;;;16.70;92.10;;;;;;5067907;28;20451;-67
2023/10/30 03:26:53;;;;;;;1.20;0.67;;;16.70;92.00;;;;;;5062305;28;20442;-67
2023/10/30 03:29:20;;;;;;;2.83;0.83;;;16.70;91.80;;;;;;5092447;28;20525;-68
2023/10/30 03:31:48;;;;;;;2.47;1.00;;;16.70;91.90;;;;;;5059958;28;20569;-67
2023/10/30 03:34:18;;;;;;;1.00;0.60;;;16.70;92.00;;;;;;5071837;28;20463;-67
2023/10/30 03:36:45;;;;;;;0.70;0.60;;;16.70;92.00;;;;;;5071843;28;20471;-67
2023/10/30 03:39:12;;;;;;;2.97;0.90;;;16.70;91.90;;;;;;5071926;28;20444;-68
2023/10/30 03:41:39;;;;;;;2.53;1.00;;;16.70;91.80;;;;;;5072013;28;20813;-68
2023/10/30 03:44:08;;;;;;;1.60;0.70;;;16.70;91.60;;;;;;5072103;28;20443;-68
2023/10/30 03:46:35;;;;;;;0.93;0.70;;;16.70;91.60;;;;;;5072051;28;21017;-68
2023/10/30 03:49:02;;;;;;;1.30;0.87;;;16.70;91.60;;;;;;5070808;28;20523;-67
2023/10/30 03:51:30;;;;;;;2.40;0.73;;;16.70;91.70;;;;;;5019566;28;20454;-68
2023/10/30 03:53:57;;;;;;;1.87;1.20;;;16.70;91.60;;;;;;5071591;28;20554;-67
2023/10/30 03:56:24;;;;;;;3.40;0.90;;;16.60;91.60;;;;;;5071842;28;20444;-67
2023/10/30 03:58:51;;;;;;;3.87;1.10;;;16.60;91.70;;;;;;5071951;28;20862;-68
2023/10/30 04:01:17;;;;;;;1.13;0.70;;;16.60;91.70;;;;;;5062926;28;20491;-68
2023/10/30 04:03:44;;;;;;;1.47;1.00;;;16.70;91.70;;;;;;5053514;28;20457;-68
2023/10/30 04:06:11;;;;;;;4.57;1.17;;;16.60;91.60;;;;;;5052341;28;21123;-68
2023/10/30 04:08:39;;;;;;;1.17;0.77;;;16.60;91.60;;;;;;5059522;28;20451;-68
2023/10/30 04:11:10;;;;;;;4.10;1.17;;;16.60;91.60;;;;;;5066716;28;20494;-67
2023/10/30 04:13:37;;;;;;;1.67;0.77;;;16.50;91.70;;;;;;5052538;28;21006;-67
2023/10/30 04:16:04;;;;;;;2.77;1.00;;;16.50;91.80;;;;;;5068372;28;20534;-68
2023/10/30 04:18:31;;;;;;;2.43;0.83;;;16.50;91.60;;;;;;5063837;28;20476;-67
2023/10/30 04:20:59;;;;;;;2.00;0.80;;;16.50;91.70;;;;;;5055710;28;20447;-68
2023/10/30 04:23:25;;;;;;;2.47;1.10;;;16.50;91.60;;;;;;5059403;28;20480;-68
2023/10/30 04:25:54;;;;;;;2.57;0.83;;;16.40;91.70;;;;;;5051592;28;20456;-68
2023/10/30 04:28:20;;;;;;;2.60;1.20;;;16.40;91.60;;;;;;5067871;28;20456;-68
2023/10/30 04:30:47;;;;;;;1.90;0.80;;;16.50;91.70;;;;;;5052678;28;20490;-67
2023/10/30 04:33:14;;;;;;;1.07;0.60;;;16.50;91.50;;;;;;5061492;28;20463;-67
2023/10/30 04:35:41;;;;;;;1.40;0.70;;;16.60;91.60;;;;;;5051403;28;20499;-67
2023/10/30 04:38:08;;;;;;;1.43;0.70;;;16.50;91.50;;;;;;5052487;28;20444;-67
2023/10/30 04:40:35;;;;;;;2.67;1.00;;;16.50;91.50;;;;;;5051494;28;20804;-68
2023/10/30 04:43:03;;;;;;;1.13;0.70;;;16.50;91.60;;;;;;5059109;28;20495;-68
2023/10/30 04:45:30;;;;;;;0.83;0.70;;;16.50;91.50;;;;;;5051300;28;20454;-67
2023/10/30 04:47:57;;;;;;;1.97;0.80;;;16.50;91.50;;;;;;5069825;28;20569;-67
2023/10/30 04:50:23;;;;;;;0.83;0.70;;;16.50;91.40;;;;;;5069537;28;20513;-68
2023/10/30 04:52:50;;;;;;;1.13;0.90;;;16.50;91.40;;;;;;5064657;28;20453;-68
2023/10/30 04:55:17;;;;;;;2.07;0.70;;;16.40;91.50;;;;;;5056992;28;20534;-68
2023/10/30 04:57:44;;;;;;;2.23;0.70;;;16.40;91.50;;;;;;5070802;28;20452;-68
2023/10/30 05:00:14;;;;;;;1.53;0.73;;;16.40;91.50;;;;;;5071369;28;20540;-68
2023/10/30 05:02:42;;;;;;;2.50;0.73;;;16.40;91.60;;;;;;5067204;28;20452;-68
2023/10/30 05:05:09;;;;;;;2.10;0.90;;;16.30;91.60;;;;;;5074910;28;20820;-67
2023/10/30 05:07:36;;;;;;;1.00;0.80;;;16.30;91.70;;;;;;5068897;28;20460;-67
2023/10/30 05:10:02;;;;;;;1.40;0.70;;;16.30;91.70;;;;;;5054841;28;20995;-68
2023/10/30 05:12:29;;;;;;;3.50;0.97;;;16.40;91.80;;;;;;5058601;28;20483;-68
2023/10/30 05:14:58;;;;;;;1.80;0.87;;;16.40;92.00;;;;;;5074522;28;20454;-68
2023/10/30 05:17:26;;;;;;;2.03;0.83;;;16.40;91.50;;;;;;5074230;28;20490;-68
2023/10/30 05:19:53;;;;;;;0.60;0.60;;;16.40;91.60;;;;;;5061282;28;20456;-68
2023/10/30 05:22:20;;;;;;;1.07;0.60;;;16.30;91.50;;;;;;5065735;28;20444;-68
2023/10/30 05:24:47;;;;;;;1.10;0.90;;;16.30;91.50;;;;;;5065325;28;20452;-68
2023/10/30 05:27:13;;;;;;;0.70;0.70;;;16.40;91.50;;;;;;5063006;28;20451;-68
2023/10/30 05:29:40;;;;;;;0.50;0.50;;;16.40;91.50;;;;;;5091191;28;20494;-68
2023/10/30 05:32:07;;;;;;;0.60;0.60;;;16.50;91.50;;;;;;5091355;28;20439;-68
2023/10/30 05:34:36;;;;;;;0.60;0.53;;;16.60;91.60;;;;;;5074199;28;20466;-68
2023/10/30 05:37:06;;;;;;;1.17;0.60;;;16.60;91.50;;;;;;5074163;28;20455;-68
2023/10/30 05:39:33;;;;;;;1.97;0.60;;;16.60;91.40;;;;;;5074854;28;20443;-68
2023/10/30 05:42:00;;;;;;;0.63;0.50;;;16.60;91.30;;;;;;5074278;28;20443;-67
2023/10/30 05:44:29;;;;;;;0.70;0.70;;;16.60;91.30;;;;;;5078285;28;20454;-67
2023/10/30 05:46:58;;;;;;;0.77;0.77;;;16.50;91.50;;;;;;5094409;28;20497;-67
2023/10/30 05:49:25;;;;;;;1.07;0.90;;;16.50;91.60;;;;;;5094465;28;20484;-67
2023/10/30 05:51:54;;;;;;;3.80;0.90;;;16.60;91.90;;;;;;5077898;28;20948;-67
2023/10/30 05:54:21;;;;;;;2.67;0.70;;;16.50;91.60;;;;;;5074187;28;20538;-68
2023/10/30 05:56:48;;;;;;;1.23;0.90;;;16.60;91.90;;;;;;5074637;28;20526;-68
2023/10/30 05:59:15;;;;;;;0.90;0.70;;;16.60;91.50;;;;;;5075132;28;20463;-68
2023/10/30 06:01:43;;;;;;;1.37;0.90;;;16.60;91.40;;;;;;5075031;28;20944;-68
2023/10/30 06:04:09;;;;;;;1.20;0.83;;;16.70;91.50;;;;;;5054152;28;20494;-68
2023/10/30 06:06:36;;;;;;;0.60;0.60;;;16.70;91.30;;;;;;5054915;28;20463;-68
2023/10/30 06:09:07;;;;;;;2.00;0.60;;;16.70;91.30;;;;;;5058709;28;20458;-67
2023/10/30 06:11:34;;;;;;;1.43;0.77;;;16.70;91.20;;;;;;5072851;28;20495;-67
2023/10/30 06:14:01;;;;;;;1.57;0.80;;;16.70;91.20;;;;;;5068489;28;20471;-67
2023/10/30 06:16:28;;;;;;;0.70;0.70;;;16.70;91.30;;;;;;5072752;28;20999;-67
2023/10/30 06:18:55;;;;;;;0.67;0.60;;;16.60;91.30;;;;;;5071926;28;20457;-68
2023/10/30 06:21:21;;;;;;;1.20;0.90;;;16.50;91.60;;;;;;5065209;28;20448;-67
2023/10/30 06:23:48;;;;;;;2.53;0.90;;;16.60;91.70;;;;;;5065727;28;20441;-68
2023/10/30 06:26:16;;;;;;;2.33;1.00;;;16.50;91.60;;;;;;5053623;28;20448;-68
2023/10/30 06:28:43;;;;;;;2.73;0.90;;;16.60;91.80;;;;;;5053476;28;20563;-68
2023/10/30 06:31:17;;;;;;;0.70;0.70;;;16.60;91.70;;;;;;5053330;28;20483;-68
2023/10/30 06:33:45;;;;;;;1.13;1.00;;;16.50;91.60;;;;;;5055590;28;20575;-68
2023/10/30 06:36:12;;;;;;;1.10;1.00;;;16.60;92.10;;;;;;5053178;28;20460;-68
2023/10/30 06:38:39;;;;;;;2.47;1.00;;;16.60;91.60;;;;;;5053693;28;20451;-68
2023/10/30 06:41:06;;;;;;;1.97;0.90;;;16.60;91.60;;;;;;5053194;28;20440;-67
2023/10/30 06:43:34;;;;;;;0.80;0.80;;;16.60;91.70;;;;;;5056891;28;20828;-68
2023/10/30 06:46:01;;;;;;;3.00;0.77;;;16.70;91.60;;;;;;5052930;28;20464;-69
2023/10/30 06:48:28;;;;;;;0.97;0.90;;;16.70;91.60;;;;;;5066584;28;20457;-68
2023/10/30 06:50:55;;;;;;;2.43;0.87;;;16.80;91.80;;;;;;5079103;28;20929;-69
2023/10/30 06:53:25;;;;;;;2.90;1.17;;;16.90;91.90;;;;;;5053040;28;20547;-68
2023/10/30 06:55:52;;;;;;;2.20;0.80;;;16.90;91.70;;;;;;5067000;28;20455;-68
2023/10/30 06:58:21;;;;;;;3.73;0.90;;;16.90;91.60;;;;;;5072643;28;20530;-68
2023/10/30 07:00:49;;;;;;;0.63;0.63;;;17.00;91.70;;;;;;5072298;28;20462;-68
2023/10/30 07:03:24;;;;;;;0.90;0.90;;;17.00;91.70;;;;;;5071327;28;20489;-67
2023/10/30 07:05:52;;;;;;;1.23;1.10;;;17.10;91.70;;;;;;5052723;28;20481;-67
2023/10/30 07:08:19;;;;;;;1.23;1.00;;;17.20;91.60;;;;;;5052413;28;20477;-68
2023/10/30 07:10:46;;;;;;;1.00;1.00;;;17.20;91.20;;;;;;5052264;28;20498;-68
2023/10/30 07:13:15;;;;;;;0.80;0.80;;;17.20;91.30;;;;;;5067334;28;20455;-67
2023/10/30 07:15:42;;;;;;;0.73;0.73;;;17.20;91.40;;;;;;5079143;28;20435;-68
2023/10/30 07:18:10;;;;;;;2.07;1.30;;;17.30;91.50;;;;;;5091695;28;20459;-68
2023/10/30 07:20:37;;;;;;;1.20;0.80;;;17.40;91.40;;;;;;5091773;28;20491;-68
2023/10/30 07:23:04;;;;;;;1.20;0.77;;;17.40;91.40;;;;;;5092648;28;20447;-68
2023/10/30 07:25:33;;;;;;;0.83;0.70;;;17.50;91.30;;;;;;5091596;28;20510;-67
2023/10/30 07:28:00;;;;;;;1.20;0.90;;;17.60;91.30;;;;;;5085217;28;20468;-68
2023/10/30 07:30:27;;;;;;;1.23;0.70;;;17.60;91.40;;;;;;5071643;28;20478;-68
2023/10/30 07:32:54;;;;;;;0.70;0.70;;;17.70;91.40;;;;;;5071827;28;20474;-67
2023/10/30 07:35:22;;;;;;;1.40;1.00;;;17.80;91.30;;;;;;5019483;28;20451;-68
2023/10/30 07:37:49;;;;;;;2.87;1.30;;;17.80;91.20;;;;;;5071401;28;20534;-67
2023/10/30 07:40:16;;;;;;;1.67;0.90;;;17.90;91.30;;;;;;5071219;28;20498;-68
2023/10/30 07:42:43;;;;;;;1.53;0.90;;;18.00;90.90;;;;;;5071144;28;20443;-68
2023/10/30 07:45:12;;;;;;;2.10;1.00;;;18.10;91.10;;;;;;5071395;28;20955;-67
2023/10/30 07:47:39;;;;;;;0.93;0.90;;;18.30;91.20;;;;;;5071057;28;20935;-68
2023/10/30 07:50:07;;;;;;;1.60;0.90;;;18.40;91.20;;;;;;5071377;28;20475;-68
2023/10/30 07:52:36;;;;;;;2.10;1.40;;;18.40;91.00;;;;;;5071085;28;20566;-68
2023/10/30 07:55:05;;;;;;;1.53;0.70;;;18.50;90.40;;;;;;5070815;28;20447;-67
2023/10/30 07:57:32;;;;;;;1.23;0.80;;;18.50;90.30;;;;;;5070975;28;20447;-67
2023/10/30 07:59:59;;;;;;;0.80;0.80;;;18.60;90.00;;;;;;5071062;28;20542;-68
2023/10/30 08:02:26;;;;;;;1.20;1.10;;;18.60;90.30;;;;;;5071105;28;20499;-68
2023/10/30 08:04:52;;;;;;;1.83;1.30;;;18.60;90.10;;;;;;5071129;28;20497;-68
2023/10/30 08:07:19;;;;;;;0.93;0.93;;;18.60;90.20;;;;;;5070813;28;20448;-67
2023/10/30 08:09:48;;;;;;;1.77;1.20;;;18.70;90.60;;;;;;5070291;28;20211;-68
2023/10/30 08:12:15;;;;;;;1.33;1.10;;;18.70;90.30;;;;;;5070783;28;20825;-68
2023/10/30 08:14:42;;;;;;;1.87;1.00;;;18.80;90.40;;;;;;5070785;28;20525;-68
2023/10/30 08:17:09;;;;;;;1.00;0.90;;;18.90;90.50;;;;;;5070744;28;20244;-67
2023/10/30 08:19:36;;;;;;;1.00;0.90;;;18.90;90.80;;;;;;5070723;28;20205;-68
2023/10/30 08:22:03;;;;;;;1.10;1.00;;;18.80;90.80;;;;;;5067903;28;20255;-67
2023/10/30 08:24:30;;;;;;;1.03;1.00;;;18.80;90.90;;;;;;5042605;28;20474;-68
2023/10/30 08:27:01;;;;;;;1.87;0.90;;;18.90;90.90;;;;;;4983326;28;20293;-68
2023/10/30 08:29:28;;;;;;;1.87;0.90;;;18.90;90.90;;;;;;5050888;28;20554;-68
2023/10/30 08:31:55;;;;;;;0.70;0.70;;;19.00;90.90;;;;;;5050667;28;20268;-68
2023/10/30 08:34:22;;;;;;;1.50;1.40;;;19.10;91.00;;;;;;5066365;28;20256;-68
2023/10/30 08:36:49;;;;;;;1.77;1.57;;;19.20;90.60;;;;;;5070892;28;20550;-67
2023/10/30 08:39:16;;;;;;;1.80;1.40;;;19.20;90.50;;;;;;5069913;28;20493;-69
2023/10/30 08:41:43;;;;;;;1.30;1.20;;;19.30;90.50;;;;;;5070920;28;20255;-68
2023/10/30 08:44:12;;;;;;;1.27;0.80;;;19.30;90.40;;;;;;5070791;28;20295;-68
2023/10/30 08:46:39;;;;;;;2.53;1.30;;;19.50;90.30;;;;;;5070792;28;20205;-68
2023/10/30 08:49:06;;;;;;;1.87;1.20;;;19.60;90.10;;;;;;5070350;28;20802;-68
2023/10/30 08:51:40;;;;;;;2.57;1.23;;;19.70;90.00;;;;;;5059515;28;20697;-68
2023/10/30 08:54:07;;;;;;;1.60;1.20;;;19.80;88.80;;;;;;5050394;28;20213;-68
2023/10/30 08:56:34;;;;;;;1.43;1.33;;;20.00;89.00;;;;;;5050626;28;20297;-68
2023/10/30 08:59:03;;;;;;;2.20;1.20;;;20.10;88.90;;;;;;5050232;28;20205;-67
2023/10/30 09:01:32;;;;;;;2.10;1.50;;;20.30;88.40;;;;;;5050451;28;20237;-68
2023/10/30 09:03:59;;;;;;;1.90;1.20;;;20.40;88.60;;;;;;5050477;28;20215;-67
2023/10/30 09:06:27;;;;;;;2.30;1.50;;;20.50;87.70;;;;;;5051347;28;20356;-68
2023/10/30 09:08:54;;;;;;;1.53;1.40;;;20.70;87.70;;;;;;5050696;28;20206;-68
2023/10/30 09:11:22;;;;;;;3.50;1.80;;;20.80;87.30;;;;;;5049850;28;20234;-68
2023/10/30 09:13:49;;;;;;;2.60;2.00;;;20.90;86.30;;;;;;5050401;28;20234;-68
2023/10/30 09:16:15;;;;;;;2.67;2.00;;;21.00;85.80;;;;;;5050469;28;20300;-67
2023/10/30 09:18:44;;;;;;;2.43;2.13;;;21.00;84.70;;;;;;5050551;28;20238;-66
2023/10/30 09:21:12;;;;;;;2.03;1.60;;;21.10;84.40;;;;;;5057888;28;20304;-68
2023/10/30 09:23:41;;;;;;;2.63;2.20;;;21.20;84.50;;;;;;5070404;28;20209;-66
2023/10/30 09:26:10;;;;;;;4.93;2.13;;;21.30;84.20;;;;;;5070252;28;20283;-68
2023/10/30 09:28:37;;;;;;;2.40;2.20;;;21.30;83.00;;;;;;5070549;28;20216;-67
2023/10/30 09:31:04;;;;;;;2.53;2.07;;;21.40;81.80;;;;;;5070069;28;20221;-67
2023/10/30 09:33:34;;;;;;;2.80;2.30;;;21.50;82.30;;;;;;5070617;28;20543;-67
2023/10/30 09:36:06;;;;;;;3.90;2.00;;;21.50;80.90;;;;;;5070192;28;20212;-67
2023/10/30 09:38:33;;;;;;;4.63;2.30;;;21.70;80.80;;;;;;5070005;28;20294;-67
2023/10/30 09:41:03;;;;;;;2.87;2.57;;;21.80;81.00;;;;;;5070231;28;20201;-67
2023/10/30 09:43:30;;;;;;;2.67;2.33;;;22.00;78.90;;;;;;5070833;28;20212;-67
2023/10/30 09:45:59;;;;;;;2.90;2.70;;;22.10;79.50;;;;;;5070422;28;20216;-67
2023/10/30 09:48:28;;;;;;;5.43;2.70;;;22.10;78.00;;;;;;5072649;28;20684;-67
2023/10/30 09:50:56;;;;;;;4.40;2.73;;;22.10;78.50;;;;;;5072499;28;20235;-67
2023/10/30 09:53:26;;;;;;;3.17;2.30;;;22.00;78.50;;;;;;5073992;28;20205;-68
2023/10/30 09:55:54;;;;;;;4.37;2.50;;;22.00;78.00;;;;;;5053682;28;20201;-67
2023/10/30 09:58:23;;;;;;;3.50;2.53;;;22.00;78.00;;;;;;5053725;28;20210;-67
2023/10/30 10:00:51;;;;;;;3.27;2.80;;;21.80;77.50;;;;;;5053697;28;20208;-67
2023/10/30 10:03:20;;;;;;;3.53;2.50;;;21.70;77.60;;;;;;5053767;28;20305;-67
2023/10/30 10:05:55;;;;;;;3.73;2.67;;;21.70;78.10;;;;;;5054320;28;20213;-67
2023/10/30 10:08:24;;;;;;;2.60;2.40;;;21.60;77.60;;;;;;5059005;28;20297;-66
2023/10/30 10:10:55;;;;;;;4.10;2.40;;;21.60;78.00;;;;;;5056550;28;20234;-66
2023/10/30 10:13:22;;;;;;;3.47;2.77;;;21.60;77.60;;;;;;5053858;28;20209;-67
2023/10/30 10:15:49;;;;;;;3.73;2.67;;;21.50;77.00;;;;;;5058230;28;20299;-66
2023/10/30 10:18:24;;;;;;;2.47;2.27;;;21.50;77.50;;;;;;5062361;28;20640;-66
2023/10/30 10:21:00;;;;;;;3.17;2.40;;;21.60;77.00;;;;;;5058205;28;20215;-66
2023/10/30 10:23:31;;;;;;;2.40;2.20;;;21.60;76.60;;;;;;5073524;28;20236;-67
2023/10/30 10:25:59;;;;;;;2.30;2.10;;;21.70;77.50;;;;;;5055571;28;20264;-66
2023/10/30 10:28:27;;;;;;;2.70;2.33;;;21.80;77.00;;;;;;5053833;28;20237;-66
2023/10/30 10:30:54;;;;;;;3.57;2.30;;;21.80;76.70;;;;;;5053862;28;20316;-67
2023/10/30 10:33:22;;;;;;;3.00;2.30;;;21.80;76.10;;;;;;5053187;28;20301;-67
2023/10/30 10:35:54;;;;;;;2.27;2.07;;;21.90;76.30;;;;;;5052970;28;20284;-68
2023/10/30 10:38:22;;;;;;;2.57;2.37;;;21.90;75.90;;;;;;5053614;28;20263;-65
2023/10/30 10:40:54;;;;;;;2.97;2.67;;;21.80;76.20;;;;;;5053128;28;20226;-67
2023/10/30 10:43:23;;;;;;;4.20;2.30;;;21.80;74.80;;;;;;5052846;28;20635;-67
2023/10/30 10:45:50;;;;;;;2.73;2.37;;;21.80;76.10;;;;;;5052662;28;20248;-67
2023/10/30 10:48:19;;;;;;;2.13;1.90;;;21.80;76.60;;;;;;5052178;28;20328;-66
2023/10/30 10:50:46;;;;;;;4.20;2.10;;;21.80;76.90;;;;;;5052510;28;20752;-67
2023/10/30 10:53:14;;;;;;;2.00;1.83;;;21.80;77.10;;;;;;5052201;28;20283;-66
2023/10/30 10:55:43;;;;;;;5.53;2.23;;;21.80;77.20;;;;;;5070256;28;20288;-66
2023/10/30 10:58:16;;;;;;;2.57;2.33;;;21.70;78.00;;;;;;5072128;28;20661;-66
2023/10/30 11:00:47;;;;;;;2.40;2.20;;;21.70;78.00;;;;;;5072265;28;20232;-67
2023/10/30 11:03:15;;;;;;;2.60;2.13;;;21.70;77.30;;;;;;5072154;28;20205;-67
2023/10/30 11:05:43;;;;;;;2.50;2.30;;;21.70;77.40;;;;;;5072071;28;20697;-67
2023/10/30 11:08:31;;;;;;;2.53;2.33;;;21.60;77.60;;;;;;5072639;28;20538;-65
2023/10/30 11:11:09;;;;;;;2.77;2.20;;;21.60;78.00;;;;;;5072460;28;20260;-67
2023/10/30 11:13:47;;;;;;;4.20;3.20;;;21.60;78.50;;;;;;5073369;28;20251;-66
2023/10/30 11:16:19;;;;;;;4.77;3.43;;;21.50;78.80;;;;;;5073242;28;20669;-66
2023/10/30 11:18:46;;;;;;;4.10;3.27;;;21.50;79.30;;;;;;5071551;28;20229;-67
2023/10/30 11:21:15;;;;;;;2.70;2.50;;;21.50;79.70;;;;;;5052672;28;20208;-66
2023/10/30 11:23:56;;;;;;;4.63;2.60;;;21.50;79.70;;;;;;5071483;28;20463;-66
2023/10/30 11:26:39;;;;;;;2.57;2.20;;;21.50;79.70;;;;;;5071829;28;20300;-68
2023/10/30 11:29:11;;;;;;;4.23;2.37;;;21.40;79.70;;;;;;5052132;28;20210;-66
2023/10/30 11:31:55;;;;;;;3.30;2.50;;;21.40;79.40;;;;;;5051925;28;20716;-65
2023/10/30 11:34:30;;;;;;;3.83;2.30;;;21.40;79.50;;;;;;5052052;28;20565;-66
2023/10/30 11:37:00;;;;;;;2.57;2.37;;;21.30;79.50;;;;;;5052221;28;20650;-67
2023/10/30 11:39:27;;;;;;;2.60;2.03;;;21.20;79.40;;;;;;5052434;28;20213;-67
2023/10/30 11:41:55;;;;;;;4.53;2.50;;;21.20;79.70;;;;;;5051862;28;20581;-66
2023/10/30 11:44:29;;;;;;;2.97;2.47;;;21.20;79.40;;;;;;5051180;28;20257;-66
2023/10/30 11:46:56;;;;;;;3.07;2.30;;;21.10;78.80;;;;;;5051050;28;20216;-67
2023/10/30 11:49:30;;;;;;;2.27;2.07;;;21.10;79.20;;;;;;5051188;28;20718;-67
2023/10/30 11:51:57;;;;;;;4.47;2.60;;;21.10;79.20;;;;;;5051238;28;20228;-67
2023/10/30 11:54:31;;;;;;;3.03;2.60;;;21.10;79.10;;;;;;5057797;28;20205;-65
2023/10/30 11:56:59;;;;;;;3.00;2.30;;;21.10;79.40;;;;;;5071426;28;20229;-66
2023/10/30 11:59:28;;;;;;;3.10;2.30;;;21.10;79.60;;;;;;5071268;28;20619;-67
2023/10/30 12:01:56;;;;;;;4.47;2.60;;;21.00;79.80;;;;;;5071011;28;20239;-66
2023/10/30 12:04:24;;;;;;;4.07;2.73;;;21.00;79.90;;;;;;5071496;28;20209;-68
2023/10/30 12:06:51;;;;;;;3.57;2.67;;;21.00;80.30;;;;;;5070926;28;20208;-67
2023/10/30 12:09:20;;;;;;;6.90;2.73;;;20.90;80.20;;;;;;5070839;28;20225;-67
2023/10/30 12:11:49;;;;;;;4.50;2.50;;;20.90;81.10;;;;;;5071724;28;20592;-68
2023/10/30 12:14:19;;;;;;;4.20;2.40;;;20.90;80.70;;;;;;5053703;28;20250;-66
2023/10/30 12:16:50;;;;;;;3.13;2.70;;;20.90;80.70;;;;;;5070781;28;20209;-66
2023/10/30 12:19:22;;;;;;;3.40;2.43;;;20.90;81.00;;;;;;5071251;28;20680;-67
2023/10/30 12:21:49;;;;;;;2.77;2.40;;;20.90;80.70;;;;;;5071618;28;20580;-67
2023/10/30 12:24:17;;;;;;;2.93;2.40;;;21.00;80.90;;;;;;5070690;28;20220;-67
2023/10/30 12:26:44;;;;;;;4.03;2.50;;;20.90;81.50;;;;;;5071056;28;20201;-65
2023/10/30 12:29:11;;;;;;;3.07;2.40;;;21.00;81.00;;;;;;5065819;28;20271;-66
2023/10/30 12:31:39;;;;;;;3.10;2.67;;;20.90;80.80;;;;;;5050546;28;20245;-66
2023/10/30 12:34:16;;;;;;;3.73;2.30;;;20.90;80.80;;;;;;5050656;28;20676;-68
2023/10/30 12:36:43;;;;;;;5.23;2.10;;;20.90;81.00;;;;;;5050818;28;20249;-66
2023/10/30 12:39:14;;;;;;;3.07;2.40;;;20.80;81.00;;;;;;5050852;28;20241;-65
2023/10/30 12:41:41;;;;;;;3.13;2.30;;;20.90;80.90;;;;;;5050817;28;20289;-66
2023/10/30 12:44:08;;;;;;;2.63;1.90;;;20.80;81.00;;;;;;5050425;28;20293;-68
2023/10/30 12:46:36;;;;;;;3.33;2.60;;;20.90;81.10;;;;;;5050402;28;20322;-66
2023/10/30 12:49:03;;;;;;;3.80;2.30;;;20.90;81.10;;;;;;5050615;28;20292;-67
2023/10/30 12:51:36;;;;;;;2.73;2.20;;;20.90;81.00;;;;;;5061008;28;20245;-67